sensor_id;sensor_type;location;lat;lon;timestamp;temperature;humidity
6788;DHT22;3431;47.966;10.268;2023-05-23T00:00:22;15.00;99.90
6788;DHT22;3431;47.966;10.268;2023-05-23T00:00:43;15.00;99.90
6788;DHT22;3431;47.966;10.268;2023-05-23T00:01:06;15.00;99.90
6788;DHT22;3431;47.966;10.268;2023-05-23T00:01:28;15.00;99.90
6788;DHT22;3431;47.966;10.268;2023-05-23T00:01:51;15.00;99.90
6788;DHT22;3431;47.966;10.268;2023-05-23T00:02:15;15.00;99.90
6788;DHT22;3431;47.966;10.268;2023-05-23T00:02:37;15.00;99.90
6788;DHT22;3431;47.966;10.268;2023-05-23T00:02:59;15.00;99.90
6788;DHT22;3431;47.966;10.268;2023-05-23T00:03:20;15.00;99.90
6788;DHT22;3431;47.966;10.268;2023-05-23T00:03:43;15.00;99.90
6788;DHT22;3431;47.966;10.268;2023-05-23T00:04:05;14.90;99.90
6788;DHT22;3431;47.966;10.268;2023-05-23T00:04:27;15.00;99.90
6788;DHT22;3431;47.966;10.268;2023-05-23T00:04:49;14.90;99.90
6788;DHT22;3431;47.966;10.268;2023-05-23T00:05:12;14.90;99.90
6788;DHT22;3431;47.966;10.268;2023-05-23T00:05:35;14.90;99.90
6788;DHT22;3431;47.966;10.268;2023-05-23T00:05:57;14.90;99.90
6788;DHT22;3431;47.966;10.268;2023-05-23T00:06:19;14.80;99.90
6788;DHT22;3431;47.966;10.268;2023-05-23T00:06:41;14.80;99.90
6788;DHT22;3431;47.966;10.268;2023-05-23T00:07:07;14.90;99.90
6788;DHT22;3431;47.966;10.268;2023-05-23T00:07:29;14.90;99.90
6788;DHT22;3431;47.966;10.268;2023-05-23T00:07:52;14.80;99.90
6788;DHT22;3431;47.966;10.268;2023-05-23T00:08:14;14.80;99.90
6788;DHT22;3431;47.966;10.268;2023-05-23T00:08:36;14.80;99.90
6788;DHT22;3431;47.966;10.268;2023-05-23T00:08:58;14.80;99.90
6788;DHT22;3431;47.966;10.268;2023-05-23T00:09:19;14.80;99.90
6788;DHT22;3431;47.966;10.268;2023-05-23T00:09:41;14.80;99.90
6788;DHT22;3431;47.966;10.268;2023-05-23T00:10:04;14.80;99.90
6788;DHT22;3431;47.966;10.268;2023-05-23T00:10:26;14.80;99.90
6788;DHT22;3431;47.966;10.268;2023-05-23T00:10:47;14.80;99.90
6788;DHT22;3431;47.966;10.268;2023-05-23T00:11:09;14.80;99.90
6788;DHT22;3431;47.966;10.268;2023-05-23T00:11:30;14.80;99.90
6788;DHT22;3431;47.966;10.268;2023-05-23T00:11:53;14.80;99.90
6788;DHT22;3431;47.966;10.268;2023-05-23T00:12:14;14.80;99.90
6788;DHT22;3431;47.966;10.268;2023-05-23T00:12:36;14.80;99.90
6788;DHT22;3431;47.966;10.268;2023-05-23T00:12:59;14.80;99.90
6788;DHT22;3431;47.966;10.268;2023-05-23T00:13:22;14.80;99.90
6788;DHT22;3431;47.966;10.268;2023-05-23T00:13:44;14.80;99.90
6788;DHT22;3431;47.966;10.268;2023-05-23T00:14:05;14.80;99.90
6788;DHT22;3431;47.966;10.268;2023-05-23T00:14:28;14.80;99.90
6788;DHT22;3431;47.966;10.268;2023-05-23T00:14:54;14.80;99.90
6788;DHT22;3431;47.966;10.268;2023-05-23T00:15:16;14.80;99.90
6788;DHT22;3431;47.966;10.268;2023-05-23T00:15:39;14.80;99.90
6788;DHT22;3431;47.966;10.268;2023-05-23T00:16:02;14.80;99.90
6788;DHT22;3431;47.966;10.268;2023-05-23T00:16:23;14.80;99.90
6788;DHT22;3431;47.966;10.268;2023-05-23T00:16:45;14.80;99.90
6788;DHT22;3431;47.966;10.268;2023-05-23T00:17:09;14.80;99.90
6788;DHT22;3431;47.966;10.268;2023-05-23T00:17:31;14.80;99.90
6788;DHT22;3431;47.966;10.268;2023-05-23T00:17:52;14.80;99.90
6788;DHT22;3431;47.966;10.268;2023-05-23T00:18:14;14.80;99.90
6788;DHT22;3431;47.966;10.268;2023-05-23T00:18:37;14.80;99.90
6788;DHT22;3431;47.966;10.268;2023-05-23T00:19:00;14.80;99.90
6788;DHT22;3431;47.966;10.268;2023-05-23T00:19:21;14.80;99.90
6788;DHT22;3431;47.966;10.268;2023-05-23T00:19:43;14.80;99.90
6788;DHT22;3431;47.966;10.268;2023-05-23T00:20:06;14.80;99.90
6788;DHT22;3431;47.966;10.268;2023-05-23T00:20:30;14.80;99.90
6788;DHT22;3431;47.966;10.268;2023-05-23T00:20:51;14.80;99.90
6788;DHT22;3431;47.966;10.268;2023-05-23T00:21:13;14.80;99.90
6788;DHT22;3431;47.966;10.268;2023-05-23T00:21:34;14.80;99.90
6788;DHT22;3431;47.966;10.268;2023-05-23T00:21:57;14.80;99.90
6788;DHT22;3431;47.966;10.268;2023-05-23T00:22:18;14.70;99.90
6788;DHT22;3431;47.966;10.268;2023-05-23T00:22:40;14.80;99.90
6788;DHT22;3431;47.966;10.268;2023-05-23T00:23:03;14.80;99.90
6788;DHT22;3431;47.966;10.268;2023-05-23T00:23:25;14.80;99.90
6788;DHT22;3431;47.966;10.268;2023-05-23T00:23:49;14.80;99.90
6788;DHT22;3431;47.966;10.268;2023-05-23T00:24:11;14.80;99.90
6788;DHT22;3431;47.966;10.268;2023-05-23T00:24:32;14.80;99.90
6788;DHT22;3431;47.966;10.268;2023-05-23T00:24:55;14.80;99.90
6788;DHT22;3431;47.966;10.268;2023-05-23T00:25:17;14.80;99.90
6788;DHT22;3431;47.966;10.268;2023-05-23T00:25:42;14.80;99.90
6788;DHT22;3431;47.966;10.268;2023-05-23T00:26:08;14.80;99.90
6788;DHT22;3431;47.966;10.268;2023-05-23T00:26:32;14.80;99.90
6788;DHT22;3431;47.966;10.268;2023-05-23T00:26:54;14.80;99.90
6788;DHT22;3431;47.966;10.268;2023-05-23T00:27:16;14.80;99.90
6788;DHT22;3431;47.966;10.268;2023-05-23T00:27:38;14.80;99.90
6788;DHT22;3431;47.966;10.268;2023-05-23T00:28:00;14.80;99.90
6788;DHT22;3431;47.966;10.268;2023-05-23T00:28:22;14.80;99.90
6788;DHT22;3431;47.966;10.268;2023-05-23T00:28:43;14.80;99.90
6788;DHT22;3431;47.966;10.268;2023-05-23T00:29:06;14.80;99.90
6788;DHT22;3431;47.966;10.268;2023-05-23T00:29:27;14.80;99.90
6788;DHT22;3431;47.966;10.268;2023-05-23T00:29:49;14.80;99.90
6788;DHT22;3431;47.966;10.268;2023-05-23T00:30:11;14.80;99.90
6788;DHT22;3431;47.966;10.268;2023-05-23T00:30:33;14.80;99.90
6788;DHT22;3431;47.966;10.268;2023-05-23T00:30:56;14.80;99.90
6788;DHT22;3431;47.966;10.268;2023-05-23T00:31:18;14.80;99.90
6788;DHT22;3431;47.966;10.268;2023-05-23T00:31:40;14.80;99.90
6788;DHT22;3431;47.966;10.268;2023-05-23T00:32:01;14.80;99.90
6788;DHT22;3431;47.966;10.268;2023-05-23T00:32:24;14.80;99.90
6788;DHT22;3431;47.966;10.268;2023-05-23T00:32:45;14.80;99.90
6788;DHT22;3431;47.966;10.268;2023-05-23T00:33:07;14.80;99.90
6788;DHT22;3431;47.966;10.268;2023-05-23T00:33:29;14.80;99.90
6788;DHT22;3431;47.966;10.268;2023-05-23T00:33:53;14.80;99.90
6788;DHT22;3431;47.966;10.268;2023-05-23T00:34:15;14.80;99.90
6788;DHT22;3431;47.966;10.268;2023-05-23T00:34:37;14.80;99.90
6788;DHT22;3431;47.966;10.268;2023-05-23T00:35:00;14.80;99.90
6788;DHT22;3431;47.966;10.268;2023-05-23T00:35:22;14.70;99.90
6788;DHT22;3431;47.966;10.268;2023-05-23T00:35:44;14.80;99.90
6788;DHT22;3431;47.966;10.268;2023-05-23T00:36:05;14.80;99.90
6788;DHT22;3431;47.966;10.268;2023-05-23T00:36:28;14.70;99.90
6788;DHT22;3431;47.966;10.268;2023-05-23T00:36:51;14.80;99.90
6788;DHT22;3431;47.966;10.268;2023-05-23T00:37:12;14.70;99.90
6788;DHT22;3431;47.966;10.268;2023-05-23T00:37:34;14.70;99.90
6788;DHT22;3431;47.966;10.268;2023-05-23T00:37:56;14.70;99.90
6788;DHT22;3431;47.966;10.268;2023-05-23T00:38:18;14.70;99.90
6788;DHT22;3431;47.966;10.268;2023-05-23T00:38:39;14.70;99.90
6788;DHT22;3431;47.966;10.268;2023-05-23T00:39:01;14.70;99.90
6788;DHT22;3431;47.966;10.268;2023-05-23T00:39:25;14.70;99.90
6788;DHT22;3431;47.966;10.268;2023-05-23T00:39:46;14.70;99.90
6788;DHT22;3431;47.966;10.268;2023-05-23T00:40:08;14.70;99.90
6788;DHT22;3431;47.966;10.268;2023-05-23T00:40:30;14.60;99.90
6788;DHT22;3431;47.966;10.268;2023-05-23T00:40:52;14.60;99.90
6788;DHT22;3431;47.966;10.268;2023-05-23T00:41:14;14.60;99.90
6788;DHT22;3431;47.966;10.268;2023-05-23T00:41:36;14.60;99.90
6788;DHT22;3431;47.966;10.268;2023-05-23T00:41:58;14.60;99.90
6788;DHT22;3431;47.966;10.268;2023-05-23T00:42:20;14.60;99.90
6788;DHT22;3431;47.966;10.268;2023-05-23T00:42:43;14.60;99.90
6788;DHT22;3431;47.966;10.268;2023-05-23T00:43:04;14.60;99.90
6788;DHT22;3431;47.966;10.268;2023-05-23T00:43:26;14.60;99.90
6788;DHT22;3431;47.966;10.268;2023-05-23T00:43:48;14.60;99.90
6788;DHT22;3431;47.966;10.268;2023-05-23T00:44:11;14.60;99.90
6788;DHT22;3431;47.966;10.268;2023-05-23T00:44:33;14.60;99.90
6788;DHT22;3431;47.966;10.268;2023-05-23T00:44:54;14.60;99.90
6788;DHT22;3431;47.966;10.268;2023-05-23T00:45:16;14.60;99.90
6788;DHT22;3431;47.966;10.268;2023-05-23T00:45:38;14.60;99.90
6788;DHT22;3431;47.966;10.268;2023-05-23T00:46:02;14.60;99.90
6788;DHT22;3431;47.966;10.268;2023-05-23T00:46:24;14.60;99.90
6788;DHT22;3431;47.966;10.268;2023-05-23T00:46:49;14.60;99.90
6788;DHT22;3431;47.966;10.268;2023-05-23T00:47:11;14.60;99.90
6788;DHT22;3431;47.966;10.268;2023-05-23T00:47:34;14.60;99.90
6788;DHT22;3431;47.966;10.268;2023-05-23T00:47:56;14.60;99.90
6788;DHT22;3431;47.966;10.268;2023-05-23T00:48:19;14.60;99.90
6788;DHT22;3431;47.966;10.268;2023-05-23T00:48:40;14.60;99.90
6788;DHT22;3431;47.966;10.268;2023-05-23T00:49:03;14.60;99.90
6788;DHT22;3431;47.966;10.268;2023-05-23T00:49:25;14.60;99.90
6788;DHT22;3431;47.966;10.268;2023-05-23T00:49:48;14.60;99.90
6788;DHT22;3431;47.966;10.268;2023-05-23T00:50:11;14.60;99.90
6788;DHT22;3431;47.966;10.268;2023-05-23T00:50:33;14.60;99.90
6788;DHT22;3431;47.966;10.268;2023-05-23T00:50:56;14.50;99.90
6788;DHT22;3431;47.966;10.268;2023-05-23T00:51:18;14.50;99.90
6788;DHT22;3431;47.966;10.268;2023-05-23T00:51:39;14.50;99.90
6788;DHT22;3431;47.966;10.268;2023-05-23T00:52:03;14.50;99.90
6788;DHT22;3431;47.966;10.268;2023-05-23T00:52:26;14.50;99.90
6788;DHT22;3431;47.966;10.268;2023-05-23T00:52:48;14.50;99.90
6788;DHT22;3431;47.966;10.268;2023-05-23T00:53:10;14.50;99.90
6788;DHT22;3431;47.966;10.268;2023-05-23T00:53:33;14.50;99.90
6788;DHT22;3431;47.966;10.268;2023-05-23T00:53:55;14.50;99.90
6788;DHT22;3431;47.966;10.268;2023-05-23T00:54:22;14.50;99.90
6788;DHT22;3431;47.966;10.268;2023-05-23T00:54:44;14.50;99.90
6788;DHT22;3431;47.966;10.268;2023-05-23T00:55:07;14.50;99.90
6788;DHT22;3431;47.966;10.268;2023-05-23T00:55:29;14.50;99.90
6788;DHT22;3431;47.966;10.268;2023-05-23T00:55:52;14.50;99.90
6788;DHT22;3431;47.966;10.268;2023-05-23T00:56:14;14.50;99.90
6788;DHT22;3431;47.966;10.268;2023-05-23T00:56:36;14.50;99.90
6788;DHT22;3431;47.966;10.268;2023-05-23T00:56:58;14.40;99.90
6788;DHT22;3431;47.966;10.268;2023-05-23T00:57:20;14.50;99.90
6788;DHT22;3431;47.966;10.268;2023-05-23T00:57:43;14.50;99.90
6788;DHT22;3431;47.966;10.268;2023-05-23T00:58:05;14.50;99.90
6788;DHT22;3431;47.966;10.268;2023-05-23T00:58:26;14.40;99.90
6788;DHT22;3431;47.966;10.268;2023-05-23T00:58:48;14.50;99.90
6788;DHT22;3431;47.966;10.268;2023-05-23T00:59:11;14.50;99.90
6788;DHT22;3431;47.966;10.268;2023-05-23T00:59:35;14.50;99.90
6788;DHT22;3431;47.966;10.268;2023-05-23T00:59:58;14.40;99.90
6788;DHT22;3431;47.966;10.268;2023-05-23T01:00:19;14.40;99.90
6788;DHT22;3431;47.966;10.268;2023-05-23T01:00:42;14.40;99.90
6788;DHT22;3431;47.966;10.268;2023-05-23T01:01:07;14.40;99.90
6788;DHT22;3431;47.966;10.268;2023-05-23T01:01:29;14.40;99.90
6788;DHT22;3431;47.966;10.268;2023-05-23T01:01:52;14.40;99.90
6788;DHT22;3431;47.966;10.268;2023-05-23T01:02:14;14.40;99.90
6788;DHT22;3431;47.966;10.268;2023-05-23T01:02:39;14.40;99.90
6788;DHT22;3431;47.966;10.268;2023-05-23T01:03:03;14.40;99.90
6788;DHT22;3431;47.966;10.268;2023-05-23T01:03:25;14.30;99.90
6788;DHT22;3431;47.966;10.268;2023-05-23T01:03:48;14.30;99.90
6788;DHT22;3431;47.966;10.268;2023-05-23T01:04:12;14.30;99.90
6788;DHT22;3431;47.966;10.268;2023-05-23T01:04:35;14.30;99.90
6788;DHT22;3431;47.966;10.268;2023-05-23T01:04:57;14.40;99.90
6788;DHT22;3431;47.966;10.268;2023-05-23T01:05:19;14.30;99.90
6788;DHT22;3431;47.966;10.268;2023-05-23T01:05:43;14.30;99.90
6788;DHT22;3431;47.966;10.268;2023-05-23T01:06:05;14.30;99.90
6788;DHT22;3431;47.966;10.268;2023-05-23T01:06:26;14.30;99.90
6788;DHT22;3431;47.966;10.268;2023-05-23T01:06:51;14.30;99.90
6788;DHT22;3431;47.966;10.268;2023-05-23T01:07:14;14.30;99.90
6788;DHT22;3431;47.966;10.268;2023-05-23T01:07:35;14.30;99.90
6788;DHT22;3431;47.966;10.268;2023-05-23T01:07:57;14.30;99.90
6788;DHT22;3431;47.966;10.268;2023-05-23T01:08:19;14.30;99.90
6788;DHT22;3431;47.966;10.268;2023-05-23T01:08:41;14.30;99.90
6788;DHT22;3431;47.966;10.268;2023-05-23T01:09:04;14.20;99.90
6788;DHT22;3431;47.966;10.268;2023-05-23T01:09:27;14.30;99.90
6788;DHT22;3431;47.966;10.268;2023-05-23T01:09:49;14.30;99.90
6788;DHT22;3431;47.966;10.268;2023-05-23T01:10:12;14.20;99.90
6788;DHT22;3431;47.966;10.268;2023-05-23T01:10:35;14.30;99.90
6788;DHT22;3431;47.966;10.268;2023-05-23T01:11:00;14.20;99.90
6788;DHT22;3431;47.966;10.268;2023-05-23T01:11:27;14.20;99.90
6788;DHT22;3431;47.966;10.268;2023-05-23T01:11:59;14.20;99.90
6788;DHT22;3431;47.966;10.268;2023-05-23T01:12:28;14.20;99.90
6788;DHT22;3431;47.966;10.268;2023-05-23T01:13:09;14.20;99.90
6788;DHT22;3431;47.966;10.268;2023-05-23T01:13:39;14.20;99.90
6788;DHT22;3431;47.966;10.268;2023-05-23T01:14:06;14.20;99.90
6788;DHT22;3431;47.966;10.268;2023-05-23T01:14:36;14.20;99.90
6788;DHT22;3431;47.966;10.268;2023-05-23T01:15:05;14.20;99.90
6788;DHT22;3431;47.966;10.268;2023-05-23T01:15:35;14.20;99.90
6788;DHT22;3431;47.966;10.268;2023-05-23T01:16:03;14.20;99.90
6788;DHT22;3431;47.966;10.268;2023-05-23T01:16:39;14.20;99.90
6788;DHT22;3431;47.966;10.268;2023-05-23T01:17:10;14.20;99.90
6788;DHT22;3431;47.966;10.268;2023-05-23T01:17:40;14.20;99.90
6788;DHT22;3431;47.966;10.268;2023-05-23T01:18:07;14.20;99.90
6788;DHT22;3431;47.966;10.268;2023-05-23T01:18:36;14.20;99.90
6788;DHT22;3431;47.966;10.268;2023-05-23T01:19:03;14.20;99.90
6788;DHT22;3431;47.966;10.268;2023-05-23T01:19:58;14.20;99.90
6788;DHT22;3431;47.966;10.268;2023-05-23T01:20:23;14.20;99.90
6788;DHT22;3431;47.966;10.268;2023-05-23T01:20:49;14.20;99.90
6788;DHT22;3431;47.966;10.268;2023-05-23T01:21:16;14.10;99.90
6788;DHT22;3431;47.966;10.268;2023-05-23T01:21:39;14.20;99.90
6788;DHT22;3431;47.966;10.268;2023-05-23T01:22:09;14.10;99.90
6788;DHT22;3431;47.966;10.268;2023-05-23T01:22:48;14.20;99.90
6788;DHT22;3431;47.966;10.268;2023-05-23T01:23:52;14.10;99.90
6788;DHT22;3431;47.966;10.268;2023-05-23T01:24:31;14.10;99.90
6788;DHT22;3431;47.966;10.268;2023-05-23T01:25:09;14.10;99.90
6788;DHT22;3431;47.966;10.268;2023-05-23T01:25:43;14.10;99.90
6788;DHT22;3431;47.966;10.268;2023-05-23T01:26:16;14.10;99.90
6788;DHT22;3431;47.966;10.268;2023-05-23T01:26:52;14.10;99.90
6788;DHT22;3431;47.966;10.268;2023-05-23T01:27:23;14.10;99.90
6788;DHT22;3431;47.966;10.268;2023-05-23T01:27:54;14.10;99.90
6788;DHT22;3431;47.966;10.268;2023-05-23T01:28:19;14.10;99.90
6788;DHT22;3431;47.966;10.268;2023-05-23T01:28:45;14.00;99.90
6788;DHT22;3431;47.966;10.268;2023-05-23T01:29:10;14.00;99.90
6788;DHT22;3431;47.966;10.268;2023-05-23T01:29:37;14.00;99.90
6788;DHT22;3431;47.966;10.268;2023-05-23T01:30:01;14.00;99.90
6788;DHT22;3431;47.966;10.268;2023-05-23T01:30:24;14.00;99.90
6788;DHT22;3431;47.966;10.268;2023-05-23T01:30:50;14.00;99.90
6788;DHT22;3431;47.966;10.268;2023-05-23T01:31:13;14.00;99.90
6788;DHT22;3431;47.966;10.268;2023-05-23T01:31:36;14.00;99.90
6788;DHT22;3431;47.966;10.268;2023-05-23T01:32:04;14.00;99.90
6788;DHT22;3431;47.966;10.268;2023-05-23T01:32:28;14.00;99.90
6788;DHT22;3431;47.966;10.268;2023-05-23T01:32:52;13.90;99.90
6788;DHT22;3431;47.966;10.268;2023-05-23T01:33:15;13.90;99.90
6788;DHT22;3431;47.966;10.268;2023-05-23T01:33:40;13.90;99.90
6788;DHT22;3431;47.966;10.268;2023-05-23T01:34:03;13.90;99.90
6788;DHT22;3431;47.966;10.268;2023-05-23T01:34:24;13.90;99.90
6788;DHT22;3431;47.966;10.268;2023-05-23T01:34:47;13.90;99.90
6788;DHT22;3431;47.966;10.268;2023-05-23T01:35:09;13.90;99.90
6788;DHT22;3431;47.966;10.268;2023-05-23T01:35:34;13.90;99.90
6788;DHT22;3431;47.966;10.268;2023-05-23T01:35:56;13.90;99.90
6788;DHT22;3431;47.966;10.268;2023-05-23T01:36:19;13.90;99.90
6788;DHT22;3431;47.966;10.268;2023-05-23T01:36:42;13.90;99.90
6788;DHT22;3431;47.966;10.268;2023-05-23T01:37:07;13.90;99.90
6788;DHT22;3431;47.966;10.268;2023-05-23T01:37:30;13.90;99.90
6788;DHT22;3431;47.966;10.268;2023-05-23T01:37:52;13.90;99.90
6788;DHT22;3431;47.966;10.268;2023-05-23T01:38:14;13.90;99.90
6788;DHT22;3431;47.966;10.268;2023-05-23T01:38:36;13.80;99.90
6788;DHT22;3431;47.966;10.268;2023-05-23T01:38:58;13.90;99.90
6788;DHT22;3431;47.966;10.268;2023-05-23T01:39:19;13.90;99.90
6788;DHT22;3431;47.966;10.268;2023-05-23T01:39:41;13.80;99.90
6788;DHT22;3431;47.966;10.268;2023-05-23T01:40:03;13.80;99.90
6788;DHT22;3431;47.966;10.268;2023-05-23T01:40:26;13.80;99.90
6788;DHT22;3431;47.966;10.268;2023-05-23T01:40:47;13.80;99.90
6788;DHT22;3431;47.966;10.268;2023-05-23T01:41:09;13.80;99.90
6788;DHT22;3431;47.966;10.268;2023-05-23T01:41:32;13.80;99.90
6788;DHT22;3431;47.966;10.268;2023-05-23T01:41:53;13.80;99.90
6788;DHT22;3431;47.966;10.268;2023-05-23T01:42:16;13.80;99.90
6788;DHT22;3431;47.966;10.268;2023-05-23T01:42:38;13.80;99.90
6788;DHT22;3431;47.966;10.268;2023-05-23T01:43:01;13.80;99.90
6788;DHT22;3431;47.966;10.268;2023-05-23T01:43:24;13.80;99.90
6788;DHT22;3431;47.966;10.268;2023-05-23T01:43:47;13.80;99.90
6788;DHT22;3431;47.966;10.268;2023-05-23T01:44:08;13.80;99.90
6788;DHT22;3431;47.966;10.268;2023-05-23T01:44:31;13.80;99.90
6788;DHT22;3431;47.966;10.268;2023-05-23T01:44:54;13.80;99.90
6788;DHT22;3431;47.966;10.268;2023-05-23T01:45:19;13.80;99.90
6788;DHT22;3431;47.966;10.268;2023-05-23T01:45:42;13.70;99.90
6788;DHT22;3431;47.966;10.268;2023-05-23T01:46:05;13.80;99.90
6788;DHT22;3431;47.966;10.268;2023-05-23T01:46:28;13.80;99.90
6788;DHT22;3431;47.966;10.268;2023-05-23T01:46:52;13.80;99.90
6788;DHT22;3431;47.966;10.268;2023-05-23T01:47:14;13.80;99.90
6788;DHT22;3431;47.966;10.268;2023-05-23T01:47:37;13.80;99.90
6788;DHT22;3431;47.966;10.268;2023-05-23T01:48:00;13.80;99.90
6788;DHT22;3431;47.966;10.268;2023-05-23T01:48:23;13.80;99.90
6788;DHT22;3431;47.966;10.268;2023-05-23T01:48:47;13.70;99.90
6788;DHT22;3431;47.966;10.268;2023-05-23T01:49:11;13.80;99.90
6788;DHT22;3431;47.966;10.268;2023-05-23T01:49:34;13.70;99.90
6788;DHT22;3431;47.966;10.268;2023-05-23T01:49:57;13.70;99.90
6788;DHT22;3431;47.966;10.268;2023-05-23T01:50:21;13.80;99.90
6788;DHT22;3431;47.966;10.268;2023-05-23T01:50:43;13.80;99.90
6788;DHT22;3431;47.966;10.268;2023-05-23T01:51:05;13.70;99.90
6788;DHT22;3431;47.966;10.268;2023-05-23T01:51:29;13.70;99.90
6788;DHT22;3431;47.966;10.268;2023-05-23T01:51:52;13.80;99.90
6788;DHT22;3431;47.966;10.268;2023-05-23T01:52:14;13.70;99.90
6788;DHT22;3431;47.966;10.268;2023-05-23T01:52:36;13.70;99.90
6788;DHT22;3431;47.966;10.268;2023-05-23T01:52:58;13.70;99.90
6788;DHT22;3431;47.966;10.268;2023-05-23T01:53:22;13.70;99.90
6788;DHT22;3431;47.966;10.268;2023-05-23T01:53:44;13.80;99.90
6788;DHT22;3431;47.966;10.268;2023-05-23T01:54:06;13.70;99.90
6788;DHT22;3431;47.966;10.268;2023-05-23T01:54:28;13.70;99.90
6788;DHT22;3431;47.966;10.268;2023-05-23T01:54:52;13.70;99.90
6788;DHT22;3431;47.966;10.268;2023-05-23T01:55:16;13.70;99.90
6788;DHT22;3431;47.966;10.268;2023-05-23T01:55:42;13.70;99.90
6788;DHT22;3431;47.966;10.268;2023-05-23T01:56:05;13.70;99.90
6788;DHT22;3431;47.966;10.268;2023-05-23T01:56:28;13.70;99.90
6788;DHT22;3431;47.966;10.268;2023-05-23T01:56:50;13.70;99.90
6788;DHT22;3431;47.966;10.268;2023-05-23T01:57:12;13.70;99.90
6788;DHT22;3431;47.966;10.268;2023-05-23T01:57:36;13.70;99.90
6788;DHT22;3431;47.966;10.268;2023-05-23T01:58:01;13.70;99.90
6788;DHT22;3431;47.966;10.268;2023-05-23T01:58:23;13.70;99.90
6788;DHT22;3431;47.966;10.268;2023-05-23T01:58:44;13.70;99.90
6788;DHT22;3431;47.966;10.268;2023-05-23T01:59:06;13.70;99.90
6788;DHT22;3431;47.966;10.268;2023-05-23T01:59:30;13.70;99.90
6788;DHT22;3431;47.966;10.268;2023-05-23T01:59:52;13.70;99.90
6788;DHT22;3431;47.966;10.268;2023-05-23T02:00:15;13.70;99.90
6788;DHT22;3431;47.966;10.268;2023-05-23T02:00:36;13.70;99.90
6788;DHT22;3431;47.966;10.268;2023-05-23T02:00:59;13.70;99.90
6788;DHT22;3431;47.966;10.268;2023-05-23T02:01:21;13.70;99.90
6788;DHT22;3431;47.966;10.268;2023-05-23T02:01:43;13.60;99.90
6788;DHT22;3431;47.966;10.268;2023-05-23T02:02:04;13.70;99.90
6788;DHT22;3431;47.966;10.268;2023-05-23T02:02:27;13.60;99.90
6788;DHT22;3431;47.966;10.268;2023-05-23T02:02:50;13.60;99.90
6788;DHT22;3431;47.966;10.268;2023-05-23T02:03:12;13.60;99.90
6788;DHT22;3431;47.966;10.268;2023-05-23T02:03:34;13.60;99.90
6788;DHT22;3431;47.966;10.268;2023-05-23T02:03:56;13.60;99.90
6788;DHT22;3431;47.966;10.268;2023-05-23T02:04:18;13.60;99.90
6788;DHT22;3431;47.966;10.268;2023-05-23T02:04:40;13.60;99.90
6788;DHT22;3431;47.966;10.268;2023-05-23T02:05:01;13.60;99.90
6788;DHT22;3431;47.966;10.268;2023-05-23T02:05:23;13.60;99.90
6788;DHT22;3431;47.966;10.268;2023-05-23T02:05:44;13.60;99.90
6788;DHT22;3431;47.966;10.268;2023-05-23T02:06:07;13.60;99.90
6788;DHT22;3431;47.966;10.268;2023-05-23T02:06:29;13.60;99.90
6788;DHT22;3431;47.966;10.268;2023-05-23T02:06:51;13.60;99.90
6788;DHT22;3431;47.966;10.268;2023-05-23T02:07:13;13.60;99.90
6788;DHT22;3431;47.966;10.268;2023-05-23T02:07:35;13.60;99.90
6788;DHT22;3431;47.966;10.268;2023-05-23T02:07:57;13.60;99.90
6788;DHT22;3431;47.966;10.268;2023-05-23T02:08:19;13.60;99.90
6788;DHT22;3431;47.966;10.268;2023-05-23T02:08:40;13.60;99.90
6788;DHT22;3431;47.966;10.268;2023-05-23T02:09:02;13.60;99.90
6788;DHT22;3431;47.966;10.268;2023-05-23T02:09:26;13.60;99.90
6788;DHT22;3431;47.966;10.268;2023-05-23T02:09:47;13.60;99.90
6788;DHT22;3431;47.966;10.268;2023-05-23T02:10:09;13.60;99.90
6788;DHT22;3431;47.966;10.268;2023-05-23T02:10:31;13.60;99.90
6788;DHT22;3431;47.966;10.268;2023-05-23T02:10:55;13.60;99.90
6788;DHT22;3431;47.966;10.268;2023-05-23T02:11:18;13.60;99.90
6788;DHT22;3431;47.966;10.268;2023-05-23T02:11:39;13.60;99.90
6788;DHT22;3431;47.966;10.268;2023-05-23T02:12:01;13.60;99.90
6788;DHT22;3431;47.966;10.268;2023-05-23T02:12:22;13.60;99.90
6788;DHT22;3431;47.966;10.268;2023-05-23T02:12:44;13.60;99.90
6788;DHT22;3431;47.966;10.268;2023-05-23T02:13:08;13.50;99.90
6788;DHT22;3431;47.966;10.268;2023-05-23T02:13:29;13.50;99.90
6788;DHT22;3431;47.966;10.268;2023-05-23T02:13:51;13.60;99.90
6788;DHT22;3431;47.966;10.268;2023-05-23T02:14:12;13.50;99.90
6788;DHT22;3431;47.966;10.268;2023-05-23T02:14:34;13.60;99.90
6788;DHT22;3431;47.966;10.268;2023-05-23T02:14:58;13.50;99.90
6788;DHT22;3431;47.966;10.268;2023-05-23T02:15:19;13.50;99.90
6788;DHT22;3431;47.966;10.268;2023-05-23T02:15:41;13.60;99.90
6788;DHT22;3431;47.966;10.268;2023-05-23T02:16:03;13.60;99.90
6788;DHT22;3431;47.966;10.268;2023-05-23T02:16:25;13.60;99.90
6788;DHT22;3431;47.966;10.268;2023-05-23T02:16:48;13.60;99.90
6788;DHT22;3431;47.966;10.268;2023-05-23T02:17:09;13.60;99.90
6788;DHT22;3431;47.966;10.268;2023-05-23T02:17:31;13.60;99.90
6788;DHT22;3431;47.966;10.268;2023-05-23T02:17:53;13.60;99.90
6788;DHT22;3431;47.966;10.268;2023-05-23T02:18:15;13.60;99.90
6788;DHT22;3431;47.966;10.268;2023-05-23T02:18:39;13.60;99.90
6788;DHT22;3431;47.966;10.268;2023-05-23T02:19:00;13.60;99.90
6788;DHT22;3431;47.966;10.268;2023-05-23T02:19:22;13.60;99.90
6788;DHT22;3431;47.966;10.268;2023-05-23T02:19:44;13.60;99.90
6788;DHT22;3431;47.966;10.268;2023-05-23T02:20:08;13.60;99.90
6788;DHT22;3431;47.966;10.268;2023-05-23T02:20:30;13.60;99.90
6788;DHT22;3431;47.966;10.268;2023-05-23T02:20:51;13.60;99.90
6788;DHT22;3431;47.966;10.268;2023-05-23T02:21:13;13.60;99.90
6788;DHT22;3431;47.966;10.268;2023-05-23T02:21:37;13.60;99.90
6788;DHT22;3431;47.966;10.268;2023-05-23T02:21:58;13.60;99.90
6788;DHT22;3431;47.966;10.268;2023-05-23T02:22:22;13.60;99.90
6788;DHT22;3431;47.966;10.268;2023-05-23T02:22:44;13.60;99.90
6788;DHT22;3431;47.966;10.268;2023-05-23T02:23:05;13.60;99.90
6788;DHT22;3431;47.966;10.268;2023-05-23T02:23:28;13.60;99.90
6788;DHT22;3431;47.966;10.268;2023-05-23T02:23:49;13.60;99.90
6788;DHT22;3431;47.966;10.268;2023-05-23T02:24:12;13.60;99.90
6788;DHT22;3431;47.966;10.268;2023-05-23T02:24:33;13.60;99.90
6788;DHT22;3431;47.966;10.268;2023-05-23T02:24:55;13.60;99.90
6788;DHT22;3431;47.966;10.268;2023-05-23T02:25:17;13.60;99.90
6788;DHT22;3431;47.966;10.268;2023-05-23T02:25:39;13.60;99.90
6788;DHT22;3431;47.966;10.268;2023-05-23T02:26:01;13.60;99.90
6788;DHT22;3431;47.966;10.268;2023-05-23T02:26:23;13.60;99.90
6788;DHT22;3431;47.966;10.268;2023-05-23T02:26:45;13.70;99.90
6788;DHT22;3431;47.966;10.268;2023-05-23T02:27:07;13.60;99.90
6788;DHT22;3431;47.966;10.268;2023-05-23T02:27:29;13.60;99.90
6788;DHT22;3431;47.966;10.268;2023-05-23T02:27:51;13.60;99.90
6788;DHT22;3431;47.966;10.268;2023-05-23T02:28:14;13.60;99.90
6788;DHT22;3431;47.966;10.268;2023-05-23T02:28:37;13.60;99.90
6788;DHT22;3431;47.966;10.268;2023-05-23T02:28:58;13.60;99.90
6788;DHT22;3431;47.966;10.268;2023-05-23T02:29:20;13.60;99.90
6788;DHT22;3431;47.966;10.268;2023-05-23T02:29:43;13.60;99.90